createdAt,value
2019-03-20T00:02:18.263Z,6.04
2019-03-20T00:04:50.681Z,6.03
2019-03-20T00:07:22.699Z,6.05
2019-03-20T00:09:54.694Z,6.03
2019-03-20T00:12:26.786Z,6.03
2019-03-20T00:14:58.971Z,6.02
2019-03-20T00:17:31.133Z,6.02
2019-03-20T00:20:06.030Z,6.02
2019-03-20T00:22:39.721Z,6.02
2019-03-20T00:25:13.065Z,6.00
2019-03-20T00:27:45.083Z,6.01
2019-03-20T00:33:56.929Z,5.97
2019-03-20T00:36:28.990Z,5.95
2019-03-20T00:39:01.071Z,5.94
2019-03-20T00:41:33.403Z,5.94
2019-03-20T00:44:05.408Z,5.94
2019-03-20T00:46:37.490Z,5.92
2019-03-20T00:49:09.532Z,5.93
2019-03-20T00:51:41.510Z,5.92
2019-03-20T00:54:13.494Z,5.90
2019-03-20T00:56:45.614Z,5.90
2019-03-20T01:38:56.692Z,5.75
2019-03-20T01:41:37.640Z,5.75
2019-03-20T01:44:02.579Z,5.75
2019-03-20T01:46:35.189Z,5.75
2019-03-20T01:49:07.429Z,5.75
2019-03-20T01:51:39.667Z,5.74
2019-03-20T01:54:11.768Z,5.74
2019-03-20T01:56:44.188Z,5.73
2019-03-20T01:59:17.306Z,5.72
2019-03-20T02:01:52.479Z,5.70
2019-03-20T02:04:24.412Z,5.68
2019-03-20T02:06:56.679Z,5.68
2019-03-20T02:09:28.758Z,5.66
2019-03-20T02:12:00.869Z,5.65
2019-03-20T02:14:32.878Z,5.63
2019-03-20T02:17:04.892Z,5.64
2019-03-20T02:19:36.936Z,5.60
2019-03-20T02:22:09.236Z,5.59
2019-03-20T02:24:41.294Z,5.56
2019-03-20T02:27:13.287Z,5.54
2019-03-20T02:29:45.321Z,5.51
2019-03-20T02:32:17.467Z,5.50
2019-03-20T02:34:49.763Z,5.47
2019-03-20T02:37:23.988Z,5.47
2019-03-20T02:39:56.016Z,5.45
2019-03-20T02:42:28.106Z,5.43
2019-03-20T02:45:00.422Z,5.42
2019-03-20T02:47:32.431Z,5.42
2019-03-20T02:50:06.404Z,5.41
2019-03-20T02:52:38.369Z,5.39
2019-03-20T02:55:12.103Z,5.39
2019-03-20T02:57:44.193Z,5.38
2019-03-20T03:00:24.023Z,5.37
2019-03-20T03:02:56.162Z,5.36
2019-03-20T03:05:28.238Z,5.36
2019-03-20T03:08:00.262Z,5.35
2019-03-20T03:10:32.258Z,5.35
2019-03-20T03:13:04.341Z,5.33
2019-03-20T03:47:24.225Z,4.98
2019-03-20T03:49:56.346Z,4.99
2019-03-20T03:52:28.302Z,5.00
2019-03-20T03:58:39.585Z,5.02
2019-03-20T04:01:33.253Z,5.04
2019-03-20T04:04:34.783Z,5.06
2019-03-20T04:11:11.063Z,5.07
2019-03-20T04:16:51.453Z,5.11
2019-03-20T04:19:23.596Z,5.14
2019-03-20T04:21:55.588Z,5.17
2019-03-20T04:24:27.588Z,5.20
2019-03-20T04:26:59.555Z,5.22
2019-03-20T04:29:31.615Z,5.22
2019-03-20T04:32:03.544Z,5.25
2019-03-20T04:34:35.491Z,5.25
2019-03-20T04:37:17.948Z,5.26
2019-03-20T04:40:04.501Z,5.25
2019-03-20T04:43:00.097Z,5.25
2019-03-20T04:55:12.525Z,5.20
2019-03-20T04:57:50.305Z,5.23
2019-03-20T05:00:34.679Z,5.23
2019-03-20T05:03:17.480Z,5.26
2019-03-20T05:06:01.824Z,5.28
2019-03-20T05:08:36.670Z,5.29
2019-03-20T05:11:10.026Z,5.30
2019-03-20T05:13:51.618Z,5.31
2019-03-20T05:16:28.682Z,5.32
2019-03-20T05:19:17.600Z,5.34
2019-03-20T05:21:55.136Z,5.33
2019-03-20T05:24:27.184Z,5.33
2019-03-20T05:27:00.351Z,5.34
2019-03-20T05:29:32.390Z,5.35
2019-03-20T05:32:04.756Z,5.35
2019-03-20T05:34:37.202Z,5.37
2019-03-20T05:37:10.771Z,5.40
2019-03-20T05:39:43.770Z,5.42
2019-03-20T05:42:15.748Z,5.45
2019-03-20T05:44:47.802Z,5.46
2019-03-20T05:47:19.789Z,5.47
2019-03-20T05:49:54.634Z,5.51
2019-03-20T05:52:26.970Z,5.56
2019-03-20T05:54:58.996Z,5.59
2019-03-20T05:57:31.240Z,5.59
2019-03-20T06:00:05.988Z,5.62
2019-03-20T06:02:37.998Z,5.65
2019-03-20T06:05:11.557Z,5.71
2019-03-20T06:07:45.311Z,5.76
2019-03-20T06:10:20.788Z,5.81
2019-03-20T06:12:52.925Z,5.84
2019-03-20T06:15:25.025Z,5.87
2019-03-20T06:17:57.172Z,5.93
2019-03-20T06:20:29.606Z,5.97
2019-03-20T06:23:01.674Z,6.00
2019-03-20T06:25:33.676Z,6.02
2019-03-20T06:28:05.757Z,6.07
2019-03-20T06:30:37.805Z,6.11
2019-03-20T06:33:10.183Z,6.15
2019-03-20T06:35:42.308Z,6.19
2019-03-20T06:38:16.063Z,6.25
2019-03-20T06:40:48.131Z,6.31
2019-03-20T06:43:20.192Z,6.36
2019-03-20T06:45:52.162Z,6.41
2019-03-20T06:48:24.362Z,6.46
2019-03-20T06:50:56.463Z,6.49
2019-03-20T06:53:28.418Z,6.53
2019-03-20T06:56:00.404Z,6.57
2019-03-20T06:58:32.467Z,6.61
2019-03-20T07:01:11.720Z,6.66
2019-03-20T07:03:54.105Z,6.73
2019-03-20T07:06:51.239Z,6.79
2019-03-20T07:09:37.496Z,6.85
2019-03-20T07:12:09.527Z,6.90
2019-03-20T07:14:49.169Z,6.93
2019-03-20T07:17:22.770Z,6.97
2019-03-20T07:19:57.016Z,7.00
2019-03-20T07:22:37.032Z,7.02
2019-03-20T07:25:09.594Z,7.08
2019-03-20T07:27:44.114Z,7.12
2019-03-20T07:30:16.393Z,7.18
2019-03-20T07:32:49.785Z,7.26
2019-03-20T07:35:21.940Z,7.34
2019-03-20T07:37:56.281Z,7.41
2019-03-20T07:40:27.724Z,7.49
2019-03-20T07:43:08.821Z,7.57
2019-03-20T07:45:35.567Z,7.66
2019-03-20T07:48:21.258Z,7.74
2019-03-20T07:50:44.316Z,7.85
2019-03-20T07:53:16.605Z,7.95
2019-03-20T07:55:48.687Z,8.04
2019-03-20T07:58:20.862Z,8.11
2019-03-20T08:00:52.961Z,8.17
2019-03-20T08:03:25.501Z,8.19
2019-03-20T08:05:58.011Z,8.20
2019-03-20T08:08:30.079Z,8.23
2019-03-20T08:11:02.029Z,8.27
2019-03-20T08:13:35.558Z,8.31
2019-03-20T08:16:11.922Z,8.35
2019-03-20T08:18:44.446Z,8.44
2019-03-20T08:21:17.508Z,8.52
2019-03-20T08:23:50.381Z,8.63
2019-03-20T08:26:22.564Z,8.69
2019-03-20T08:28:54.546Z,8.76
2019-03-20T08:31:26.550Z,8.80
2019-03-20T08:33:58.792Z,8.82
2019-03-20T08:36:32.720Z,8.86
2019-03-20T08:39:06.840Z,8.94
2019-03-20T08:41:39.596Z,9.08
2019-03-20T08:44:12.058Z,9.22
2019-03-20T08:46:44.167Z,9.33
2019-03-20T08:49:16.377Z,9.42
2019-03-20T08:51:48.491Z,9.51
2019-03-20T08:54:21.805Z,9.58
2019-03-20T08:59:55.990Z,9.69
2019-03-20T09:02:28.986Z,9.73
2019-03-20T09:05:01.681Z,9.78
2019-03-20T09:07:33.910Z,9.84
2019-03-20T09:10:20.911Z,9.89
2019-03-20T09:12:55.471Z,9.98
2019-03-20T09:15:28.196Z,10.06
2019-03-20T09:18:00.341Z,10.17
2019-03-20T09:20:32.563Z,10.25
2019-03-20T09:23:05.345Z,10.31
2019-03-20T09:25:37.966Z,10.36
2019-03-20T09:28:11.834Z,10.40
2019-03-20T09:30:44.369Z,10.45
2019-03-20T09:36:18.919Z,10.54
2019-03-20T09:39:27.745Z,10.65
2019-03-20T09:42:06.683Z,10.69
2019-03-20T09:44:40.144Z,10.71
2019-03-20T09:47:12.524Z,10.70
2019-03-20T09:49:46.873Z,10.71
2019-03-20T09:52:28.526Z,10.73
2019-03-20T09:55:01.638Z,10.77
2019-03-20T09:57:34.166Z,10.79
2019-03-20T10:00:25.459Z,10.80
2019-03-20T10:05:58.696Z,10.79
2019-03-20T10:08:30.949Z,10.78
2019-03-20T10:11:04.143Z,10.78
2019-03-20T10:13:37.426Z,10.78
2019-03-20T10:16:17.311Z,10.77
2019-03-20T10:18:52.751Z,10.73
2019-03-20T10:21:24.955Z,10.71
2019-03-20T10:23:57.017Z,10.68
2019-03-20T10:26:29.160Z,10.65
2019-03-20T10:29:01.323Z,10.64
2019-03-20T10:31:33.501Z,10.66
2019-03-20T10:34:05.704Z,10.67
2019-03-20T10:36:38.533Z,10.67
2019-03-20T10:39:16.337Z,10.68
2019-03-20T10:41:48.995Z,10.68
2019-03-20T10:44:21.038Z,10.68
2019-03-20T10:46:53.169Z,10.68
2019-03-20T10:49:25.699Z,10.66
2019-03-20T10:51:58.594Z,10.70
2019-03-20T10:54:30.691Z,10.74
2019-03-20T10:57:02.791Z,10.81
2019-03-20T10:59:36.615Z,10.86
2019-03-20T11:02:08.839Z,10.93
2019-03-20T11:04:40.874Z,10.97
2019-03-20T11:07:12.985Z,11.01
2019-03-20T11:09:45.202Z,11.04
2019-03-20T11:12:17.280Z,11.09
2019-03-20T11:14:49.329Z,11.12
2019-03-20T11:17:21.773Z,11.13
2019-03-20T11:19:56.215Z,11.15
2019-03-20T11:22:27.636Z,11.15
2019-03-20T11:24:59.611Z,11.14
2019-03-20T11:27:33.407Z,11.15
2019-03-20T11:30:13.231Z,11.15
2019-03-20T11:32:45.528Z,11.13
2019-03-20T11:35:17.711Z,11.11
2019-03-20T11:37:49.963Z,11.10
2019-03-20T11:40:41.203Z,11.07
2019-03-20T11:43:13.880Z,11.06
2019-03-20T11:45:46.478Z,11.03
2019-03-20T11:48:18.599Z,11.06
2019-03-20T11:50:50.795Z,11.05
2019-03-20T11:53:23.859Z,11.05
2019-03-20T11:55:56.010Z,11.06
2019-03-20T11:58:28.020Z,11.08
2019-03-20T12:01:00.093Z,11.11
2019-03-20T12:03:32.406Z,11.15
2019-03-20T12:06:04.684Z,11.17
2019-03-20T12:08:36.817Z,11.22
2019-03-20T12:11:09.236Z,11.21
2019-03-20T12:13:41.247Z,11.18
2019-03-20T12:16:13.280Z,11.16
2019-03-20T12:18:45.255Z,11.15
2019-03-20T12:21:17.368Z,11.14
2019-03-20T12:23:49.376Z,11.13
2019-03-20T12:26:21.399Z,11.14
2019-03-20T12:28:56.348Z,11.13
2019-03-20T12:31:28.423Z,11.12
2019-03-20T12:34:02.764Z,11.11
2019-03-20T12:36:38.047Z,11.09
2019-03-20T12:39:11.183Z,11.06
2019-03-20T12:41:46.507Z,11.06
2019-03-20T12:44:19.256Z,11.05
2019-03-20T12:47:26.366Z,11.05
2019-03-20T12:50:04.687Z,11.04
2019-03-20T12:52:44.006Z,11.03
2019-03-20T12:55:20.576Z,11.04
2019-03-20T12:57:57.821Z,11.03
2019-03-20T13:00:42.043Z,11.04
2019-03-20T13:03:20.352Z,11.05
2019-03-20T13:06:20.314Z,11.06
2019-03-20T13:09:18.317Z,11.06
2019-03-20T13:11:57.745Z,11.10
2019-03-20T13:15:01.495Z,11.12
2019-03-20T13:17:33.748Z,11.15
2019-03-20T13:20:12.763Z,11.18
2019-03-20T13:23:22.052Z,11.22
2019-03-20T13:26:02.792Z,11.28
2019-03-20T13:31:43.888Z,11.33
2019-03-20T13:40:38.328Z,11.42
2019-03-20T13:43:13.115Z,11.45
2019-03-20T13:49:10.989Z,11.49
2019-03-20T13:52:04.249Z,11.53
2019-03-20T13:54:39.994Z,11.56
2019-03-20T13:57:12.404Z,11.57
2019-03-20T13:59:45.846Z,11.63
2019-03-20T14:02:17.974Z,11.65
2019-03-20T14:04:50.353Z,11.66
2019-03-20T14:07:22.476Z,11.67
2019-03-20T14:09:54.569Z,11.66
2019-03-20T14:12:26.722Z,11.66
2019-03-20T14:15:01.118Z,11.66
2019-03-20T14:17:37.064Z,11.64
2019-03-20T14:23:38.991Z,11.61
2019-03-20T14:26:20.680Z,11.61
2019-03-20T14:29:10.018Z,11.61
2019-03-20T14:31:54.982Z,11.63
2019-03-20T14:34:39.595Z,11.64
2019-03-20T14:37:17.759Z,11.62
2019-03-20T14:40:07.640Z,11.63
2019-03-20T14:55:48.030Z,11.59
2019-03-20T15:04:45.101Z,11.57
2019-03-20T15:13:39.873Z,11.52
2019-03-20T15:16:16.678Z,11.53
2019-03-20T15:18:55.469Z,11.52
2019-03-20T15:21:31.976Z,11.54
2019-03-20T15:46:21.800Z,11.50
2019-03-20T15:54:56.600Z,11.49
2019-03-20T15:57:38.991Z,11.48
2019-03-20T16:00:37.182Z,11.48
2019-03-20T16:03:27.638Z,11.48
2019-03-20T16:06:00.269Z,11.47
2019-03-20T16:08:35.935Z,11.48
2019-03-20T16:11:09.492Z,11.46
2019-03-20T16:13:44.268Z,11.46
2019-03-20T16:16:16.426Z,11.46
2019-03-20T16:18:48.773Z,11.46
2019-03-20T16:21:20.833Z,11.46
2019-03-20T16:23:53.107Z,11.45
2019-03-20T16:26:25.488Z,11.44
2019-03-20T16:28:59.022Z,11.43
2019-03-20T16:31:31.504Z,11.42
2019-03-20T16:34:03.616Z,11.42
2019-03-20T16:36:38.403Z,11.42
2019-03-20T16:39:10.295Z,11.41
2019-03-20T16:41:43.222Z,11.41
2019-03-20T16:44:15.291Z,11.41
2019-03-20T16:46:47.374Z,11.40
2019-03-20T16:49:19.679Z,11.39
2019-03-20T16:51:51.721Z,11.39
2019-03-20T16:54:23.748Z,11.38
2019-03-20T16:56:56.148Z,11.37
2019-03-20T16:59:28.203Z,11.37
2019-03-20T17:02:01.628Z,11.35
2019-03-20T17:04:33.641Z,11.34
2019-03-20T17:07:05.662Z,11.33
2019-03-20T17:09:37.680Z,11.33
2019-03-20T17:12:12.463Z,11.32
2019-03-20T17:14:44.804Z,11.29
2019-03-20T17:17:16.819Z,11.27
2019-03-20T17:19:49.768Z,11.26
2019-03-20T17:22:21.806Z,11.25
2019-03-20T17:24:53.856Z,11.23
2019-03-20T17:27:26.385Z,11.22
2019-03-20T17:29:58.444Z,11.23
2019-03-20T17:32:30.799Z,11.23
2019-03-20T17:35:03.132Z,11.22
2019-03-20T17:37:35.435Z,11.21
2019-03-20T17:40:14.645Z,11.21
2019-03-20T17:42:46.652Z,11.27
2019-03-20T17:48:30.212Z,11.29
2019-03-20T18:03:23.981Z,11.20
2019-03-20T18:09:25.892Z,11.18
2019-03-20T18:12:09.925Z,11.18
2019-03-20T18:14:42.739Z,11.18
2019-03-20T18:17:15.270Z,11.18
2019-03-20T18:19:49.000Z,11.18
2019-03-20T19:09:07.462Z,11.13
2019-03-20T19:11:48.384Z,11.15
2019-03-20T19:14:21.345Z,11.16
2019-03-20T19:16:53.534Z,11.16
2019-03-20T19:19:25.841Z,11.18
2019-03-20T19:22:00.012Z,11.17
2019-03-20T19:24:32.808Z,11.18
2019-03-20T19:27:06.030Z,11.19
2019-03-20T19:29:41.139Z,11.21
2019-03-20T19:32:20.800Z,11.20
2019-03-20T19:34:53.145Z,11.21
2019-03-20T19:37:25.256Z,11.21
2019-03-20T19:39:57.381Z,11.22
2019-03-20T19:42:32.475Z,11.22
2019-03-20T19:45:12.089Z,11.23
2019-03-20T19:47:49.302Z,11.23
2019-03-20T20:06:27.568Z,11.22
2019-03-20T20:09:00.401Z,11.23
2019-03-20T20:11:33.249Z,11.23
2019-03-20T20:17:14.564Z,11.24
2019-03-20T20:19:46.646Z,11.25
2019-03-20T20:22:18.703Z,11.26
2019-03-20T20:24:53.057Z,11.26
2019-03-20T20:27:25.521Z,11.27
2019-03-20T20:29:57.705Z,11.27
2019-03-20T20:32:30.045Z,11.28
2019-03-20T20:35:07.526Z,11.29
2019-03-20T20:37:40.859Z,11.28
2019-03-20T20:40:22.937Z,11.27
2019-03-20T20:43:18.728Z,11.27
2019-03-20T20:45:51.231Z,11.26
2019-03-20T20:48:24.229Z,11.27
2019-03-20T20:51:03.758Z,11.25
2019-03-20T20:53:37.797Z,11.25
2019-03-20T20:56:11.822Z,11.24
2019-03-20T20:58:45.553Z,11.24
2019-03-20T21:01:51.349Z,11.25
2019-03-20T21:04:29.541Z,11.24
2019-03-20T21:10:36.768Z,11.22
2019-03-20T21:13:11.977Z,11.22
2019-03-20T21:15:49.035Z,11.22
2019-03-20T21:18:49.114Z,11.21
2019-03-20T21:21:22.206Z,11.21
2019-03-20T21:24:24.908Z,11.21
2019-03-20T21:27:17.223Z,11.21
2019-03-20T21:30:29.953Z,11.19
2019-03-20T21:33:28.833Z,11.18
2019-03-20T21:36:34.087Z,11.17
2019-03-20T21:39:08.172Z,11.17
2019-03-20T21:42:26.675Z,11.17
2019-03-20T21:45:24.394Z,11.17
2019-03-20T21:58:25.331Z,11.13
2019-03-20T22:04:45.282Z,11.13
2019-03-20T22:07:19.834Z,11.15
2019-03-20T22:09:56.577Z,11.16
2019-03-20T22:12:50.206Z,11.17
2019-03-20T22:15:46.536Z,11.16
2019-03-20T22:18:57.229Z,11.16
2019-03-20T22:21:57.095Z,11.17
2019-03-20T22:24:59.780Z,11.16
2019-03-20T22:28:03.536Z,11.15
2019-03-20T22:34:26.921Z,11.16
2019-03-20T22:36:59.247Z,11.15
2019-03-20T22:40:16.183Z,11.15
2019-03-20T22:43:29.426Z,11.14
2019-03-20T22:46:27.871Z,11.13
2019-03-20T22:49:16.100Z,11.15
2019-03-20T22:52:28.542Z,11.15
2019-03-20T22:55:40.786Z,11.14
2019-03-20T22:58:46.542Z,11.14
2019-03-20T23:01:42.430Z,11.14
2019-03-20T23:07:42.780Z,11.11
2019-03-20T23:10:38.356Z,11.13
2019-03-20T23:13:20.283Z,11.14
2019-03-20T23:16:00.933Z,11.14
2019-03-20T23:18:35.074Z,11.16
2019-03-20T23:21:10.199Z,11.18
2019-03-20T23:23:45.120Z,11.17
2019-03-20T23:26:17.132Z,11.19
2019-03-20T23:28:49.445Z,11.18
2019-03-20T23:31:21.818Z,11.18
2019-03-20T23:33:54.705Z,11.19
2019-03-20T23:36:30.244Z,11.18
2019-03-20T23:39:09.761Z,11.17
2019-03-20T23:41:46.027Z,11.17
2019-03-20T23:44:20.448Z,11.16
2019-03-20T23:46:53.619Z,11.16
2019-03-20T23:49:28.226Z,11.15
2019-03-20T23:52:01.642Z,11.14
2019-03-20T23:54:45.074Z,11.13
2019-03-20T23:57:17.716Z,11.13
2019-03-20T23:59:52.076Z,11.12
